createdAt,value
2022-10-29T00:01:33.114Z,102091.22
2022-10-29T00:04:02.429Z,102096.09
2022-10-29T00:06:31.710Z,102096.38
2022-10-29T00:09:00.988Z,102092.03
2022-10-29T00:11:30.246Z,102089.34
2022-10-29T00:14:02.227Z,102080.16
2022-10-29T00:16:37.682Z,102090.63
2022-10-29T00:19:07.794Z,102089.84
2022-10-29T00:21:38.128Z,102087.41
2022-10-29T00:24:07.962Z,102092.09
2022-10-29T00:26:37.354Z,102080.81
2022-10-29T00:29:06.642Z,102079.09
2022-10-29T00:31:35.943Z,102077.44
2022-10-29T00:34:05.489Z,102077.88
2022-10-29T00:36:34.749Z,102062.19
2022-10-29T00:39:04.007Z,102078.31
2022-10-29T00:41:33.301Z,102078.81
2022-10-29T00:44:17.743Z,102067.19
2022-10-29T00:46:50.635Z,102068.84
2022-10-29T00:49:21.169Z,102063.97
2022-10-29T00:51:51.205Z,102065.19
2022-10-29T00:54:21.718Z,102045.44
2022-10-29T00:56:56.734Z,102055.94
2022-10-29T00:59:27.273Z,102069.06
2022-10-29T01:01:57.085Z,102066.59
2022-10-29T01:04:27.501Z,102061.97
2022-10-29T01:06:57.542Z,102068.63
2022-10-29T01:09:26.793Z,102067.16
2022-10-29T01:12:22.697Z,102085.69
2022-10-29T01:15:13.717Z,102065.25
2022-10-29T01:18:04.778Z,102075.91
2022-10-29T01:20:42.272Z,102078.00
2022-10-29T01:23:36.026Z,102072.53
2022-10-29T01:26:18.146Z,102063.09
2022-10-29T01:29:18.215Z,102064.53
2022-10-29T01:32:13.916Z,102074.25
2022-10-29T01:35:00.829Z,102070.72
2022-10-29T01:37:52.232Z,102064.47
2022-10-29T01:40:30.383Z,102058.66
2022-10-29T01:43:23.169Z,102050.81
2022-10-29T01:45:57.227Z,102047.53
2022-10-29T01:48:33.342Z,102035.38
2022-10-29T01:51:08.741Z,102025.66
2022-10-29T01:53:41.010Z,102018.88
2022-10-29T01:56:10.409Z,102029.13
2022-10-29T01:58:42.172Z,102030.34
2022-10-29T02:01:45.920Z,102028.38
2022-10-29T02:04:56.325Z,102027.66
2022-10-29T02:07:37.138Z,102023.38
2022-10-29T02:10:22.081Z,102026.22
2022-10-29T02:12:57.159Z,102011.06
2022-10-29T02:15:44.921Z,102018.97
2022-10-29T02:18:14.374Z,102015.00
2022-10-29T02:20:48.127Z,102010.91
2022-10-29T02:23:18.740Z,101992.38
2022-10-29T02:25:48.121Z,102002.53
2022-10-29T02:28:17.564Z,102000.97
2022-10-29T02:30:46.921Z,101992.88
2022-10-29T02:33:16.283Z,102001.06
2022-10-29T02:35:45.580Z,102004.25
2022-10-29T02:38:14.957Z,102000.63
2022-10-29T02:40:44.218Z,101993.78
2022-10-29T02:43:13.577Z,101986.22
2022-10-29T02:45:42.990Z,101983.16
2022-10-29T02:48:12.289Z,101981.59
2022-10-29T02:50:41.627Z,101975.53
2022-10-29T02:53:10.967Z,101961.72
2022-10-29T02:55:40.288Z,101954.94
2022-10-29T02:58:09.571Z,101965.19
2022-10-29T03:00:38.905Z,101971.97
2022-10-29T03:03:08.177Z,101976.72
2022-10-29T03:05:37.425Z,101968.97
2022-10-29T03:08:06.887Z,101969.50
2022-10-29T03:10:36.183Z,101963.75
2022-10-29T03:13:05.581Z,101961.34
2022-10-29T03:15:34.837Z,101962.97
2022-10-29T03:18:04.216Z,101962.44
2022-10-29T03:20:34.112Z,101967.25
2022-10-29T03:23:03.413Z,101962.81
2022-10-29T03:25:32.746Z,101968.13
2022-10-29T03:28:02.955Z,101958.88
2022-10-29T03:30:32.389Z,101963.50
2022-10-29T03:33:01.634Z,101968.88
2022-10-29T03:35:30.988Z,101954.31
2022-10-29T03:38:00.301Z,101949.81
2022-10-29T03:40:29.575Z,101957.38
2022-10-29T03:42:59.163Z,101952.47
2022-10-29T03:45:28.582Z,101951.75
2022-10-29T03:47:58.151Z,101953.75
2022-10-29T03:50:27.682Z,101957.50
2022-10-29T03:52:56.967Z,101946.28
2022-10-29T03:55:29.146Z,101952.63
2022-10-29T03:57:59.167Z,101956.34
2022-10-29T04:00:28.591Z,101968.53
2022-10-29T04:02:58.248Z,101964.88
2022-10-29T04:05:27.979Z,101964.47
2022-10-29T04:08:00.042Z,101960.53
2022-10-29T04:10:31.315Z,101946.78
2022-10-29T04:13:00.630Z,101945.09
2022-10-29T04:15:29.936Z,101940.28
2022-10-29T04:17:59.512Z,101939.53
2022-10-29T04:20:56.390Z,101943.56
2022-10-29T04:28:58.058Z,101925.34
2022-10-29T04:31:29.088Z,101907.94
2022-10-29T04:34:01.034Z,101897.84
2022-10-29T04:36:30.280Z,101892.09
2022-10-29T04:38:59.656Z,101892.78
2022-10-29T04:41:28.957Z,101895.47
2022-10-29T04:44:00.856Z,101898.53
2022-10-29T04:46:30.253Z,101917.16
2022-10-29T04:48:59.771Z,101914.69
2022-10-29T04:51:29.798Z,101900.50
2022-10-29T04:54:02.258Z,101895.56
2022-10-29T04:56:33.160Z,101889.06
2022-10-29T04:59:02.504Z,101906.41
2022-10-29T05:01:32.849Z,101905.53
2022-10-29T05:04:04.840Z,101897.38
2022-10-29T05:06:34.110Z,101888.81
2022-10-29T05:09:03.434Z,101900.22
2022-10-29T05:11:32.728Z,101891.75
2022-10-29T05:14:02.081Z,101896.59
2022-10-29T05:16:31.380Z,101888.13
2022-10-29T05:19:00.665Z,101895.78
2022-10-29T05:21:30.047Z,101888.91
2022-10-29T05:23:59.425Z,101895.03
2022-10-29T05:26:28.724Z,101883.69
2022-10-29T05:28:58.003Z,101893.28
2022-10-29T05:31:27.617Z,101894.09
2022-10-29T05:33:56.875Z,101886.44
2022-10-29T05:36:26.150Z,101888.88
2022-10-29T05:38:55.415Z,101880.47
2022-10-29T05:41:24.699Z,101879.09
2022-10-29T05:43:53.996Z,101868.34
2022-10-29T05:46:23.285Z,101877.56
2022-10-29T05:48:52.579Z,101881.50
2022-10-29T05:51:22.127Z,101883.31
2022-10-29T05:53:51.726Z,101878.00
2022-10-29T05:56:21.002Z,101886.03
2022-10-29T05:58:53.513Z,101870.97
2022-10-29T06:01:22.860Z,101872.56
2022-10-29T06:06:22.520Z,101875.25
2022-10-29T06:08:51.838Z,101864.69
2022-10-29T06:11:21.351Z,101862.31
2022-10-29T06:13:50.614Z,101863.47
2022-10-29T06:16:19.901Z,101857.72
2022-10-29T06:18:49.158Z,101852.41
2022-10-29T06:21:18.458Z,101858.84
2022-10-29T06:23:47.685Z,101875.81
2022-10-29T06:26:17.122Z,101858.41
2022-10-29T06:28:46.401Z,101856.13
2022-10-29T06:31:15.653Z,101843.09
2022-10-29T06:33:45.027Z,101838.72
2022-10-29T06:36:14.410Z,101833.84
2022-10-29T06:38:43.688Z,101848.72
2022-10-29T06:41:12.980Z,101853.50
2022-10-29T06:43:42.521Z,101851.19
2022-10-29T06:46:11.854Z,101863.91
2022-10-29T06:48:41.115Z,101856.13
2022-10-29T06:51:10.412Z,101869.88
2022-10-29T06:53:39.767Z,101871.81
2022-10-29T06:56:09.306Z,101871.66
2022-10-29T06:58:38.636Z,101870.34
2022-10-29T07:01:08.041Z,101873.47
2022-10-29T07:03:37.304Z,101876.13
2022-10-29T07:06:06.838Z,101879.75
2022-10-29T07:08:36.165Z,101883.78
2022-10-29T07:11:05.548Z,101884.50
2022-10-29T07:13:34.829Z,101886.06
2022-10-29T07:16:04.455Z,101885.56
2022-10-29T07:18:33.709Z,101875.25
2022-10-29T07:21:05.577Z,101883.59
2022-10-29T07:23:34.861Z,101881.50
2022-10-29T07:26:04.228Z,101878.19
2022-10-29T07:28:33.508Z,101880.94
2022-10-29T07:31:04.025Z,101880.44
2022-10-29T07:33:33.578Z,101877.06
2022-10-29T07:36:03.191Z,101878.19
2022-10-29T07:38:35.122Z,101882.28
2022-10-29T07:41:04.409Z,101882.19
2022-10-29T07:43:33.641Z,101876.75
2022-10-29T07:46:04.098Z,101873.81
2022-10-29T07:48:33.415Z,101877.19
2022-10-29T07:51:03.706Z,101869.34
2022-10-29T07:53:33.844Z,101871.66
2022-10-29T07:56:03.907Z,101861.31
2022-10-29T07:58:33.239Z,101857.81
2022-10-29T08:01:02.932Z,101872.75
2022-10-29T08:03:33.930Z,101868.53
2022-10-29T08:06:03.858Z,101859.53
2022-10-29T08:08:34.955Z,101851.59
2022-10-29T08:11:05.834Z,101847.84
2022-10-29T08:13:35.626Z,101847.06
2022-10-29T08:16:04.874Z,101858.34
2022-10-29T08:18:34.109Z,101859.72
2022-10-29T08:21:07.574Z,101868.53
2022-10-29T08:23:36.860Z,101858.44
2022-10-29T08:26:06.170Z,101857.06
2022-10-29T08:28:35.986Z,101856.97
2022-10-29T08:31:05.620Z,101847.28
2022-10-29T08:33:34.893Z,101837.34
2022-10-29T08:36:04.198Z,101840.09
2022-10-29T08:38:33.446Z,101845.34
2022-10-29T08:41:14.012Z,101836.78
2022-10-29T08:46:57.398Z,101824.09
2022-10-29T08:49:35.044Z,101822.16
2022-10-29T08:52:14.073Z,101847.25
2022-10-29T08:54:46.747Z,101842.13
2022-10-29T08:57:21.825Z,101847.00
2022-10-29T09:00:23.105Z,101851.53
2022-10-29T09:03:00.089Z,101857.34
2022-10-29T09:05:48.819Z,101850.13
2022-10-29T09:08:34.473Z,101855.44
2022-10-29T09:11:18.674Z,101843.28
2022-10-29T09:14:13.589Z,101854.63
2022-10-29T09:16:58.208Z,101816.41
2022-10-29T09:19:56.518Z,101844.56
2022-10-29T09:22:36.142Z,101828.31
2022-10-29T09:25:32.527Z,101830.25
2022-10-29T09:28:20.049Z,101823.41
2022-10-29T09:31:16.788Z,101830.88
2022-10-29T09:33:55.249Z,101816.09
2022-10-29T09:36:27.529Z,101823.06
2022-10-29T09:39:03.662Z,101823.59
2022-10-29T09:41:37.417Z,101819.09
2022-10-29T09:44:19.364Z,101832.88
2022-10-29T09:47:18.054Z,101815.94
2022-10-29T09:50:05.195Z,101821.84
2022-10-29T09:52:42.491Z,101833.31
2022-10-29T09:55:21.436Z,101829.78
2022-10-29T09:57:50.924Z,101827.25
2022-10-29T10:00:23.972Z,101817.69
2022-10-29T10:03:01.204Z,101810.72
2022-10-29T10:05:36.363Z,101816.75
2022-10-29T10:08:09.084Z,101811.19
2022-10-29T10:10:54.571Z,101807.53
2022-10-29T10:13:27.884Z,101796.88
2022-10-29T10:16:06.124Z,101803.03
2022-10-29T10:18:35.406Z,101800.81
2022-10-29T10:21:10.741Z,101793.19
2022-10-29T10:23:46.759Z,101791.06
2022-10-29T10:26:36.834Z,101788.94
2022-10-29T10:29:23.648Z,101774.56
2022-10-29T10:32:13.486Z,101776.81
2022-10-29T10:34:42.827Z,101781.22
2022-10-29T10:37:12.011Z,101790.59
2022-10-29T10:39:55.219Z,101784.31
2022-10-29T10:42:37.298Z,101793.22
2022-10-29T10:45:27.611Z,101788.16
2022-10-29T10:47:59.961Z,101796.78
2022-10-29T10:50:35.485Z,101797.41
2022-10-29T10:53:09.906Z,101807.13
2022-10-29T10:55:41.020Z,101792.06
2022-10-29T10:58:24.168Z,101801.19
2022-10-29T11:00:58.643Z,101791.50
2022-10-29T11:03:35.381Z,101787.13
2022-10-29T11:06:15.769Z,101789.16
2022-10-29T11:09:23.847Z,101783.72
2022-10-29T11:11:59.970Z,101778.00
2022-10-29T11:14:36.707Z,101780.84
2022-10-29T11:17:10.898Z,101771.69
2022-10-29T11:19:48.578Z,101767.72
2022-10-29T11:22:26.599Z,101765.72
2022-10-29T11:25:02.002Z,101760.97
2022-10-29T11:27:50.261Z,101752.84
2022-10-29T11:30:22.241Z,101765.28
2022-10-29T11:36:24.388Z,101788.34
2022-10-29T11:39:00.058Z,101770.72
2022-10-29T11:41:29.331Z,101775.41
2022-10-29T11:43:58.612Z,101777.78
2022-10-29T11:46:48.320Z,101763.25
2022-10-29T11:49:56.465Z,101766.50
2022-10-29T11:52:35.802Z,101758.28
2022-10-29T11:55:20.510Z,101760.88
2022-10-29T11:58:05.010Z,101745.59
2022-10-29T12:00:51.628Z,101751.25
2022-10-29T12:03:39.786Z,101747.16
2022-10-29T12:06:20.123Z,101733.00
2022-10-29T12:09:43.637Z,101735.22
2022-10-29T12:12:23.453Z,101741.41
2022-10-29T12:15:19.948Z,101730.03
2022-10-29T12:18:03.965Z,101717.09
2022-10-29T12:20:55.187Z,101717.19
2022-10-29T12:23:58.086Z,101717.47
2022-10-29T12:26:44.358Z,101720.94
2022-10-29T12:29:47.410Z,101707.25
2022-10-29T12:32:25.672Z,101710.72
2022-10-29T12:35:02.933Z,101709.97
2022-10-29T12:37:58.454Z,101706.53
2022-10-29T12:40:32.951Z,101700.13
2022-10-29T12:43:08.414Z,101698.19
2022-10-29T12:46:21.494Z,101691.63
2022-10-29T12:48:54.799Z,101689.91
2022-10-29T12:52:02.020Z,101687.53
2022-10-29T12:54:48.752Z,101685.94
2022-10-29T12:57:17.948Z,101682.06
2022-10-29T12:59:47.884Z,101679.75
2022-10-29T13:02:38.901Z,101680.00
2022-10-29T13:05:11.618Z,101679.06
2022-10-29T13:07:50.110Z,101679.06
2022-10-29T13:10:26.345Z,101672.16
2022-10-29T13:13:01.677Z,101674.34
2022-10-29T13:15:39.228Z,101670.19
2022-10-29T13:18:20.438Z,101661.06
2022-10-29T13:20:52.905Z,101656.94
2022-10-29T13:23:25.197Z,101643.38
2022-10-29T13:26:02.127Z,101647.56
2022-10-29T13:28:31.411Z,101636.28
2022-10-29T13:31:06.673Z,101643.38
2022-10-29T13:33:35.890Z,101640.72
2022-10-29T13:36:28.234Z,101639.91
2022-10-29T13:39:06.480Z,101634.34
2022-10-29T13:41:43.451Z,101632.47
2022-10-29T13:44:15.475Z,101618.72
2022-10-29T13:47:01.108Z,101627.66
2022-10-29T13:49:35.583Z,101631.31
2022-10-29T13:52:19.437Z,101625.50
2022-10-29T13:54:54.820Z,101623.84
2022-10-29T13:57:29.057Z,101625.16
2022-10-29T14:00:09.506Z,101629.78
2022-10-29T14:02:44.941Z,101628.94
2022-10-29T14:05:14.356Z,101620.16
2022-10-29T14:07:57.894Z,101617.00
2022-10-29T14:10:32.924Z,101626.94
2022-10-29T14:13:14.158Z,101617.44
2022-10-29T14:16:06.203Z,101612.91
2022-10-29T14:18:36.909Z,101619.47
2022-10-29T14:21:09.223Z,101609.97
2022-10-29T14:23:40.951Z,101614.63
2022-10-29T14:29:26.801Z,101616.53
2022-10-29T14:32:09.170Z,101606.56
2022-10-29T14:34:38.475Z,101607.97
2022-10-29T14:37:15.646Z,101618.44
2022-10-29T14:40:00.422Z,101604.78
2022-10-29T14:42:49.704Z,101608.84
2022-10-29T14:45:28.530Z,101606.06
2022-10-29T14:48:05.405Z,101608.50
2022-10-29T14:50:34.678Z,101597.44
2022-10-29T14:53:09.286Z,101612.53
2022-10-29T14:55:49.187Z,101607.19
2022-10-29T14:58:31.612Z,101606.81
2022-10-29T15:01:05.966Z,101599.72
2022-10-29T15:03:37.630Z,101608.03
2022-10-29T15:06:24.488Z,101608.75
2022-10-29T15:09:01.234Z,101602.13
2022-10-29T15:11:44.677Z,101598.66
2022-10-29T15:14:53.640Z,101598.53
2022-10-29T15:17:34.439Z,101592.69
2022-10-29T15:20:09.156Z,101594.81
2022-10-29T15:22:42.773Z,101593.63
2022-10-29T15:25:25.344Z,101595.81
2022-10-29T15:27:55.194Z,101595.47
2022-10-29T15:30:35.134Z,101592.69
2022-10-29T15:33:08.352Z,101588.31
2022-10-29T15:35:38.515Z,101597.28
2022-10-29T15:38:07.766Z,101578.28
2022-10-29T15:40:37.055Z,101581.56
2022-10-29T15:43:32.366Z,101590.06
2022-10-29T15:46:01.680Z,101589.63
2022-10-29T15:48:38.060Z,101570.59
2022-10-29T15:51:07.470Z,101578.94
2022-10-29T15:53:37.993Z,101590.00
2022-10-29T15:56:07.978Z,101582.84
2022-10-29T15:58:37.255Z,101564.63
2022-10-29T16:01:06.627Z,101577.06
2022-10-29T16:03:39.547Z,101568.00
2022-10-29T16:06:11.143Z,101573.59
2022-10-29T16:08:47.206Z,101562.19
2022-10-29T16:11:20.118Z,101564.66
2022-10-29T16:13:54.399Z,101561.06
2022-10-29T16:16:27.590Z,101575.09
2022-10-29T16:18:56.754Z,101566.34
2022-10-29T16:21:28.314Z,101564.66
2022-10-29T16:23:57.633Z,101561.03
2022-10-29T16:26:28.578Z,101560.91
2022-10-29T16:28:57.835Z,101560.47
2022-10-29T16:31:31.717Z,101565.56
2022-10-29T16:34:04.030Z,101566.50
2022-10-29T16:36:35.904Z,101561.75
2022-10-29T16:39:05.165Z,101555.41
2022-10-29T16:41:36.312Z,101562.13
2022-10-29T16:44:05.598Z,101555.75
2022-10-29T16:46:34.901Z,101557.50
2022-10-29T16:49:04.200Z,101550.38
2022-10-29T16:51:33.436Z,101541.97
2022-10-29T16:54:02.653Z,101552.28
2022-10-29T16:56:31.898Z,101551.50
2022-10-29T16:59:02.222Z,101539.56
2022-10-29T17:01:31.608Z,101542.41
2022-10-29T17:04:00.916Z,101532.75
2022-10-29T17:06:30.225Z,101530.69
2022-10-29T17:08:59.538Z,101536.09
2022-10-29T17:11:28.804Z,101527.19
2022-10-29T17:13:58.084Z,101525.75
2022-10-29T17:16:27.409Z,101532.28
2022-10-29T17:18:58.228Z,101532.59
2022-10-29T17:21:27.631Z,101534.34
2022-10-29T17:23:56.897Z,101537.69
2022-10-29T17:26:26.188Z,101534.19
2022-10-29T17:28:55.427Z,101521.66
2022-10-29T17:31:25.612Z,101537.56
2022-10-29T17:33:54.910Z,101538.53
2022-10-29T17:36:24.260Z,101531.19
2022-10-29T17:38:53.701Z,101522.47
2022-10-29T17:41:22.985Z,101516.44
2022-10-29T17:43:52.281Z,101508.81
2022-10-29T17:46:21.542Z,101516.13
2022-10-29T17:48:50.806Z,101501.50
2022-10-29T17:51:20.057Z,101505.63
2022-10-29T17:53:49.298Z,101505.63
2022-10-29T17:56:18.605Z,101505.03
2022-10-29T17:58:47.963Z,101512.00
2022-10-29T18:01:17.394Z,101508.34
2022-10-29T18:03:46.904Z,101506.78
2022-10-29T18:06:16.731Z,101510.13
2022-10-29T18:08:46.205Z,101522.50
2022-10-29T18:11:20.995Z,101528.22
2022-10-29T18:13:52.037Z,101526.66
2022-10-29T18:16:25.893Z,101527.94
2022-10-29T18:19:01.700Z,101524.44
2022-10-29T18:21:32.985Z,101524.13
2022-10-29T18:24:02.301Z,101521.91
2022-10-29T18:26:33.919Z,101555.13
2022-10-29T18:29:06.397Z,101578.50
2022-10-29T18:31:36.562Z,101585.16
2022-10-29T18:34:09.154Z,101581.03
2022-10-29T18:36:38.933Z,101582.94
2022-10-29T18:39:08.950Z,101586.59
2022-10-29T18:41:39.573Z,101583.41
2022-10-29T18:44:09.372Z,101586.75
2022-10-29T18:46:38.646Z,101577.34
2022-10-29T18:49:07.922Z,101574.81
2022-10-29T18:51:37.157Z,101567.03
2022-10-29T18:54:06.624Z,101571.16
2022-10-29T18:56:38.509Z,101572.91
2022-10-29T18:59:08.160Z,101565.91
2022-10-29T19:01:39.349Z,101581.00
2022-10-29T19:04:11.149Z,101571.47
2022-10-29T19:06:40.662Z,101568.91
2022-10-29T19:09:11.785Z,101550.78
2022-10-29T19:11:41.730Z,101562.72
2022-10-29T19:14:15.287Z,101565.72
2022-10-29T19:16:44.568Z,101570.94
2022-10-29T19:19:18.385Z,101564.63
2022-10-29T19:21:50.678Z,101562.50
2022-10-29T19:24:20.025Z,101569.03
2022-10-29T19:26:49.565Z,101570.31
2022-10-29T19:29:18.838Z,101571.03
2022-10-29T19:31:48.637Z,101567.22
2022-10-29T19:34:18.046Z,101555.00
2022-10-29T19:36:47.362Z,101548.78
2022-10-29T19:39:16.600Z,101559.22
2022-10-29T19:41:45.852Z,101566.22
2022-10-29T19:44:15.181Z,101560.50
2022-10-29T19:46:44.815Z,101566.34
2022-10-29T19:49:14.054Z,101560.13
2022-10-29T19:51:44.933Z,101558.56
2022-10-29T19:54:14.338Z,101533.22
2022-10-29T19:56:43.569Z,101562.00
2022-10-29T19:59:12.882Z,101539.75
2022-10-29T20:01:43.798Z,101552.47
2022-10-29T20:04:13.330Z,101564.81
2022-10-29T20:06:43.211Z,101581.03
2022-10-29T20:09:12.565Z,101574.38
2022-10-29T20:11:41.882Z,101587.41
2022-10-29T20:14:11.175Z,101580.09
2022-10-29T20:16:41.066Z,101580.22
2022-10-29T20:19:10.378Z,101585.78
2022-10-29T20:21:39.677Z,101586.88
2022-10-29T20:24:09.094Z,101582.91
2022-10-29T20:26:38.351Z,101591.13
2022-10-29T20:29:07.653Z,101591.94
2022-10-29T20:31:41.135Z,101588.75
2022-10-29T20:34:11.858Z,101588.41
2022-10-29T20:36:41.318Z,101592.06
2022-10-29T20:39:13.190Z,101587.03
2022-10-29T20:41:46.166Z,101590.81
2022-10-29T20:44:15.451Z,101588.09
2022-10-29T20:46:44.780Z,101595.88
2022-10-29T20:49:14.224Z,101591.75
2022-10-29T20:51:43.485Z,101594.59
2022-10-29T20:54:12.897Z,101591.41
2022-10-29T20:56:42.273Z,101602.16
2022-10-29T20:59:11.576Z,101597.06
2022-10-29T21:01:40.959Z,101593.28
2022-10-29T21:04:10.301Z,101603.25
2022-10-29T21:06:39.606Z,101606.44
2022-10-29T21:09:08.912Z,101603.72
2022-10-29T21:11:38.223Z,101609.75
2022-10-29T21:14:08.267Z,101611.63
2022-10-29T21:16:37.553Z,101604.97
2022-10-29T21:19:08.764Z,101621.31
2022-10-29T21:21:38.080Z,101615.13
2022-10-29T21:24:07.583Z,101607.50
2022-10-29T21:26:36.889Z,101607.16
2022-10-29T21:29:06.245Z,101622.38
2022-10-29T21:31:35.525Z,101613.59
2022-10-29T21:34:04.963Z,101612.47
2022-10-29T21:36:34.308Z,101617.84
2022-10-29T21:39:03.589Z,101613.84
2022-10-29T21:41:32.940Z,101608.81
2022-10-29T21:44:02.373Z,101624.66
2022-10-29T21:46:31.680Z,101611.53
2022-10-29T21:49:00.925Z,101623.16
2022-10-29T21:51:30.275Z,101625.66
2022-10-29T21:53:59.676Z,101625.31
2022-10-29T21:56:28.927Z,101630.69
2022-10-29T21:59:00.324Z,101621.78
2022-10-29T22:01:32.354Z,101626.59
2022-10-29T22:04:02.883Z,101624.19
2022-10-29T22:06:35.191Z,101620.22
2022-10-29T22:09:04.389Z,101629.25
2022-10-29T22:11:33.738Z,101629.59
2022-10-29T22:14:03.055Z,101623.06
2022-10-29T22:16:32.570Z,101625.91
2022-10-29T22:19:01.818Z,101628.56
2022-10-29T22:21:33.060Z,101632.53
2022-10-29T22:24:05.875Z,101617.84
2022-10-29T22:26:35.142Z,101626.06
2022-10-29T22:29:04.460Z,101625.25
2022-10-29T22:31:33.767Z,101625.91
2022-10-29T22:34:03.113Z,101632.88
2022-10-29T22:36:33.029Z,101623.66
2022-10-29T22:39:04.204Z,101610.56
2022-10-29T22:41:33.753Z,101626.75
2022-10-29T22:44:03.077Z,101626.31
2022-10-29T22:46:33.506Z,101631.56
2022-10-29T22:49:03.939Z,101620.75
2022-10-29T22:51:35.309Z,101620.53
2022-10-29T22:54:04.904Z,101630.78
2022-10-29T22:56:40.774Z,101627.84
2022-10-29T22:59:10.527Z,101629.44
2022-10-29T23:01:44.243Z,101629.69
2022-10-29T23:04:15.688Z,101621.59
2022-10-29T23:06:47.723Z,101631.91
2022-10-29T23:09:17.039Z,101628.13
2022-10-29T23:11:46.838Z,101629.03
2022-10-29T23:14:16.175Z,101620.16
2022-10-29T23:16:45.504Z,101627.00
2022-10-29T23:19:14.832Z,101632.94
2022-10-29T23:21:44.143Z,101640.25
2022-10-29T23:24:13.482Z,101630.56
2022-10-29T23:26:42.865Z,101615.16
2022-10-29T23:29:12.185Z,101633.19
2022-10-29T23:31:41.506Z,101637.63
2022-10-29T23:34:11.299Z,101641.41
2022-10-29T23:36:40.654Z,101634.97
2022-10-29T23:39:09.971Z,101641.72
2022-10-29T23:41:39.236Z,101638.53
2022-10-29T23:44:08.585Z,101643.75
2022-10-29T23:46:37.830Z,101639.44
2022-10-29T23:49:07.162Z,101644.34
2022-10-29T23:51:36.473Z,101637.63
2022-10-29T23:54:05.800Z,101637.50
2022-10-29T23:56:35.095Z,101640.81
2022-10-29T23:59:04.400Z,101647.31
